sensor_id;sensor_type;location;lat;lon;timestamp;pressure;altitude;pressure_sealevel;temperature;humidity
37078;BME280;22989;55.998;37.212;2023-03-21T00:00:30;-11298.94;;;-145.39;44.07
37078;BME280;22989;55.998;37.212;2023-03-21T00:02:56;-11298.94;;;-145.39;44.13
37078;BME280;22989;55.998;37.212;2023-03-21T00:05:22;-11298.94;;;-145.39;44.22
37078;BME280;22989;55.998;37.212;2023-03-21T00:07:47;-11298.94;;;-145.39;44.15
37078;BME280;22989;55.998;37.212;2023-03-21T00:10:13;-11298.94;;;-145.39;44.59
37078;BME280;22989;55.998;37.212;2023-03-21T00:12:39;-11298.94;;;-145.39;44.32
37078;BME280;22989;55.998;37.212;2023-03-21T00:15:06;-11298.94;;;-145.39;44.47
37078;BME280;22989;55.998;37.212;2023-03-21T00:17:32;-11298.94;;;-145.39;44.46
37078;BME280;22989;55.998;37.212;2023-03-21T00:20:02;-11298.94;;;-145.39;44.50
37078;BME280;22989;55.998;37.212;2023-03-21T00:22:35;-11298.94;;;-145.39;44.39
37078;BME280;22989;55.998;37.212;2023-03-21T00:25:01;-11298.94;;;-145.39;44.40
37078;BME280;22989;55.998;37.212;2023-03-21T00:27:27;-11298.94;;;-145.39;44.55
37078;BME280;22989;55.998;37.212;2023-03-21T00:29:54;-11298.94;;;-145.39;44.44
37078;BME280;22989;55.998;37.212;2023-03-21T00:32:20;-11298.94;;;-145.39;44.50
37078;BME280;22989;55.998;37.212;2023-03-21T00:34:47;-11298.94;;;-145.39;44.54
37078;BME280;22989;55.998;37.212;2023-03-21T00:37:14;-11298.94;;;-145.39;44.52
37078;BME280;22989;55.998;37.212;2023-03-21T00:39:44;-11298.94;;;-145.39;44.49
37078;BME280;22989;55.998;37.212;2023-03-21T00:42:16;-11298.94;;;-145.39;44.57
37078;BME280;22989;55.998;37.212;2023-03-21T00:44:42;-11298.94;;;-145.39;44.38
37078;BME280;22989;55.998;37.212;2023-03-21T00:47:12;-11298.94;;;-145.39;44.57
37078;BME280;22989;55.998;37.212;2023-03-21T00:49:38;-11298.94;;;-145.39;44.59
37078;BME280;22989;55.998;37.212;2023-03-21T00:52:06;-11298.94;;;-145.39;44.59
37078;BME280;22989;55.998;37.212;2023-03-21T00:54:33;-11298.94;;;-145.39;44.55
37078;BME280;22989;55.998;37.212;2023-03-21T00:57:00;-11298.94;;;-145.39;44.70
37078;BME280;22989;55.998;37.212;2023-03-21T00:59:29;-11298.94;;;-145.39;44.68
37078;BME280;22989;55.998;37.212;2023-03-21T01:01:54;-11298.94;;;-145.39;44.55
37078;BME280;22989;55.998;37.212;2023-03-21T01:04:21;-11298.94;;;-145.39;44.55
37078;BME280;22989;55.998;37.212;2023-03-21T01:06:52;-11298.94;;;-145.39;44.51
37078;BME280;22989;55.998;37.212;2023-03-21T01:09:20;-11298.94;;;-145.39;44.65
37078;BME280;22989;55.998;37.212;2023-03-21T01:11:46;-11298.94;;;-145.39;44.62
37078;BME280;22989;55.998;37.212;2023-03-21T01:14:14;-11298.94;;;-145.39;44.54
37078;BME280;22989;55.998;37.212;2023-03-21T01:16:40;-11298.94;;;-145.39;44.62
37078;BME280;22989;55.998;37.212;2023-03-21T01:19:07;-11298.94;;;-145.39;44.76
37078;BME280;22989;55.998;37.212;2023-03-21T01:21:33;-11298.94;;;-145.39;44.74
37078;BME280;22989;55.998;37.212;2023-03-21T01:23:59;-11298.94;;;-145.39;44.76
37078;BME280;22989;55.998;37.212;2023-03-21T01:26:26;-11298.94;;;-145.39;44.52
37078;BME280;22989;55.998;37.212;2023-03-21T01:28:51;-11298.94;;;-145.39;44.62
37078;BME280;22989;55.998;37.212;2023-03-21T01:31:17;-11298.94;;;-145.39;44.52
37078;BME280;22989;55.998;37.212;2023-03-21T01:33:44;-11298.94;;;-145.39;44.40
37078;BME280;22989;55.998;37.212;2023-03-21T01:36:17;-11298.94;;;-145.39;44.42
37078;BME280;22989;55.998;37.212;2023-03-21T01:38:43;-11298.94;;;-145.39;44.18
37078;BME280;22989;55.998;37.212;2023-03-21T01:41:31;-11298.94;;;-145.39;43.95
37078;BME280;22989;55.998;37.212;2023-03-21T01:43:58;-11298.94;;;-145.39;43.81
37078;BME280;22989;55.998;37.212;2023-03-21T01:46:39;-11298.94;;;-145.39;43.88
37078;BME280;22989;55.998;37.212;2023-03-21T01:49:46;-11298.94;;;-145.39;43.63
37078;BME280;22989;55.998;37.212;2023-03-21T01:52:30;-11298.94;;;-145.39;43.88
37078;BME280;22989;55.998;37.212;2023-03-21T01:54:57;-11298.94;;;-145.39;43.95
37078;BME280;22989;55.998;37.212;2023-03-21T01:57:39;-11298.94;;;-145.39;43.98
37078;BME280;22989;55.998;37.212;2023-03-21T02:00:07;-11298.94;;;-145.39;43.90
37078;BME280;22989;55.998;37.212;2023-03-21T02:02:48;-11298.94;;;-145.39;43.96
37078;BME280;22989;55.998;37.212;2023-03-21T02:08:21;-11298.94;;;-145.39;43.85
37078;BME280;22989;55.998;37.212;2023-03-21T02:10:49;-11298.94;;;-145.39;43.94
37078;BME280;22989;55.998;37.212;2023-03-21T02:13:25;-11298.94;;;-145.39;44.05
37078;BME280;22989;55.998;37.212;2023-03-21T02:16:01;-11298.94;;;-145.39;43.69
37078;BME280;22989;55.998;37.212;2023-03-21T02:27:27;-11298.94;;;-145.39;43.63
37078;BME280;22989;55.998;37.212;2023-03-21T02:46:52;-11298.94;;;-145.39;44.35
37078;BME280;22989;55.998;37.212;2023-03-21T02:51:49;-11298.94;;;-145.39;44.76
37078;BME280;22989;55.998;37.212;2023-03-21T02:54:18;-11298.94;;;-145.39;44.74
37078;BME280;22989;55.998;37.212;2023-03-21T02:56:47;-11298.94;;;-145.39;45.00
37078;BME280;22989;55.998;37.212;2023-03-21T02:59:15;-11298.94;;;-145.39;45.14
37078;BME280;22989;55.998;37.212;2023-03-21T03:01:43;-11298.94;;;-145.39;45.01
37078;BME280;22989;55.998;37.212;2023-03-21T03:04:28;-11298.94;;;-145.39;45.21
37078;BME280;22989;55.998;37.212;2023-03-21T03:09:33;-11298.94;;;-145.39;45.22
37078;BME280;22989;55.998;37.212;2023-03-21T03:12:12;-11298.94;;;-145.39;45.51
37078;BME280;22989;55.998;37.212;2023-03-21T03:17:34;-11298.94;;;-145.39;45.72
37078;BME280;22989;55.998;37.212;2023-03-21T03:22:44;-11298.94;;;-145.39;45.90
37078;BME280;22989;55.998;37.212;2023-03-21T03:25:18;-11298.94;;;-145.39;46.00
37078;BME280;22989;55.998;37.212;2023-03-21T03:27:47;-11298.94;;;-145.39;46.10
37078;BME280;22989;55.998;37.212;2023-03-21T03:30:14;-11298.94;;;-145.39;46.22
37078;BME280;22989;55.998;37.212;2023-03-21T03:32:47;-11298.94;;;-145.39;46.41
37078;BME280;22989;55.998;37.212;2023-03-21T03:35:17;-11298.94;;;-145.39;46.41
37078;BME280;22989;55.998;37.212;2023-03-21T03:37:49;-11298.94;;;-145.39;46.46
37078;BME280;22989;55.998;37.212;2023-03-21T03:40:40;-11298.94;;;-145.39;46.90
37078;BME280;22989;55.998;37.212;2023-03-21T03:43:36;-11298.94;;;-145.39;47.05
37078;BME280;22989;55.998;37.212;2023-03-21T03:46:38;-11298.94;;;-145.39;47.19
37078;BME280;22989;55.998;37.212;2023-03-21T03:49:14;-11298.94;;;-145.39;47.27
37078;BME280;22989;55.998;37.212;2023-03-21T03:52:16;-11298.94;;;-145.39;47.23
37078;BME280;22989;55.998;37.212;2023-03-21T03:54:50;-11298.94;;;-145.39;47.39
37078;BME280;22989;55.998;37.212;2023-03-21T03:57:19;-11298.94;;;-145.39;47.37
37078;BME280;22989;55.998;37.212;2023-03-21T03:59:45;-11298.94;;;-145.39;47.52
37078;BME280;22989;55.998;37.212;2023-03-21T04:02:17;-11298.94;;;-145.39;47.40
37078;BME280;22989;55.998;37.212;2023-03-21T04:04:45;-11298.94;;;-145.39;47.48
37078;BME280;22989;55.998;37.212;2023-03-21T04:07:12;-11298.94;;;-145.39;47.49
37078;BME280;22989;55.998;37.212;2023-03-21T04:09:39;-11298.94;;;-145.39;47.41
37078;BME280;22989;55.998;37.212;2023-03-21T04:12:07;-11298.94;;;-145.39;47.54
37078;BME280;22989;55.998;37.212;2023-03-21T04:14:35;-11298.94;;;-145.39;47.20
37078;BME280;22989;55.998;37.212;2023-03-21T04:17:03;-11298.94;;;-145.39;47.27
37078;BME280;22989;55.998;37.212;2023-03-21T04:19:31;-11298.94;;;-145.39;47.00
37078;BME280;22989;55.998;37.212;2023-03-21T04:21:57;-11298.94;;;-145.39;46.85
37078;BME280;22989;55.998;37.212;2023-03-21T04:24:23;-11298.94;;;-145.39;46.70
37078;BME280;22989;55.998;37.212;2023-03-21T04:26:48;-11298.94;;;-145.39;46.83
37078;BME280;22989;55.998;37.212;2023-03-21T04:29:41;-11298.94;;;-145.39;46.70
37078;BME280;22989;55.998;37.212;2023-03-21T04:32:09;-11298.94;;;-145.39;46.81
37078;BME280;22989;55.998;37.212;2023-03-21T04:34:48;-11298.94;;;-145.39;46.95
37078;BME280;22989;55.998;37.212;2023-03-21T04:37:16;-11298.94;;;-145.39;47.07
37078;BME280;22989;55.998;37.212;2023-03-21T04:39:44;-11298.94;;;-145.39;47.20
37078;BME280;22989;55.998;37.212;2023-03-21T04:42:14;-11298.94;;;-145.39;47.27
37078;BME280;22989;55.998;37.212;2023-03-21T04:44:40;-11298.94;;;-145.39;47.46
37078;BME280;22989;55.998;37.212;2023-03-21T04:47:07;-11298.94;;;-145.39;47.67
37078;BME280;22989;55.998;37.212;2023-03-21T04:49:33;-11298.94;;;-145.39;47.67
37078;BME280;22989;55.998;37.212;2023-03-21T04:51:58;-11298.94;;;-145.39;47.59
37078;BME280;22989;55.998;37.212;2023-03-21T04:54:25;-11298.94;;;-145.39;47.91
37078;BME280;22989;55.998;37.212;2023-03-21T04:56:51;-11298.94;;;-145.39;48.00
37078;BME280;22989;55.998;37.212;2023-03-21T04:59:18;-11298.94;;;-145.39;47.94
37078;BME280;22989;55.998;37.212;2023-03-21T05:01:44;-11298.94;;;-145.39;48.12
37078;BME280;22989;55.998;37.212;2023-03-21T05:04:12;-11298.94;;;-145.39;48.30
37078;BME280;22989;55.998;37.212;2023-03-21T05:06:39;-11298.94;;;-145.39;48.38
37078;BME280;22989;55.998;37.212;2023-03-21T05:09:07;-11298.94;;;-145.39;48.57
37078;BME280;22989;55.998;37.212;2023-03-21T05:11:36;-11298.94;;;-145.39;48.72
37078;BME280;22989;55.998;37.212;2023-03-21T05:14:05;-11298.94;;;-145.39;48.61
37078;BME280;22989;55.998;37.212;2023-03-21T05:16:30;-11298.94;;;-145.39;48.84
37078;BME280;22989;55.998;37.212;2023-03-21T05:18:58;-11298.94;;;-145.39;49.09
37078;BME280;22989;55.998;37.212;2023-03-21T05:21:29;-11298.94;;;-145.39;49.24
37078;BME280;22989;55.998;37.212;2023-03-21T05:23:59;-11298.94;;;-145.39;49.24
37078;BME280;22989;55.998;37.212;2023-03-21T05:26:29;-11298.94;;;-145.39;49.36
37078;BME280;22989;55.998;37.212;2023-03-21T05:29:06;-11298.94;;;-145.39;49.52
37078;BME280;22989;55.998;37.212;2023-03-21T05:31:32;-11298.94;;;-145.39;49.61
37078;BME280;22989;55.998;37.212;2023-03-21T05:34:06;-11298.94;;;-145.39;49.54
37078;BME280;22989;55.998;37.212;2023-03-21T05:36:33;-11298.94;;;-145.39;49.62
37078;BME280;22989;55.998;37.212;2023-03-21T05:39:02;-11298.94;;;-145.39;49.73
37078;BME280;22989;55.998;37.212;2023-03-21T05:41:31;-11298.94;;;-145.39;49.83
37078;BME280;22989;55.998;37.212;2023-03-21T05:43:58;-11298.94;;;-145.39;49.83
37078;BME280;22989;55.998;37.212;2023-03-21T05:46:24;-11298.94;;;-145.39;49.92
37078;BME280;22989;55.998;37.212;2023-03-21T05:48:50;-11298.94;;;-145.39;49.95
37078;BME280;22989;55.998;37.212;2023-03-21T05:51:17;-11298.94;;;-145.39;50.38
37078;BME280;22989;55.998;37.212;2023-03-21T05:53:42;-11298.94;;;-145.39;50.26
37078;BME280;22989;55.998;37.212;2023-03-21T05:56:09;-11298.94;;;-145.39;50.51
37078;BME280;22989;55.998;37.212;2023-03-21T05:59:04;-11298.94;;;-145.39;50.71
37078;BME280;22989;55.998;37.212;2023-03-21T06:01:35;-11298.94;;;-145.39;50.88
37078;BME280;22989;55.998;37.212;2023-03-21T06:04:09;-11298.94;;;-145.39;51.00
37078;BME280;22989;55.998;37.212;2023-03-21T06:06:35;-11298.94;;;-145.39;51.14
37078;BME280;22989;55.998;37.212;2023-03-21T06:09:02;-11298.94;;;-145.39;51.12
37078;BME280;22989;55.998;37.212;2023-03-21T06:11:32;-11298.94;;;-145.39;51.00
37078;BME280;22989;55.998;37.212;2023-03-21T06:14:17;-11298.94;;;-145.39;51.07
37078;BME280;22989;55.998;37.212;2023-03-21T06:16:46;-11298.94;;;-145.39;51.00
37078;BME280;22989;55.998;37.212;2023-03-21T06:19:12;-11298.94;;;-145.39;51.16
37078;BME280;22989;55.998;37.212;2023-03-21T06:21:56;-11298.94;;;-145.39;51.21
37078;BME280;22989;55.998;37.212;2023-03-21T06:24:22;-11298.94;;;-145.39;51.34
37078;BME280;22989;55.998;37.212;2023-03-21T06:26:48;-11298.94;;;-145.39;51.37
37078;BME280;22989;55.998;37.212;2023-03-21T06:29:13;-11298.94;;;-145.39;51.29
37078;BME280;22989;55.998;37.212;2023-03-21T06:31:45;-11298.94;;;-145.39;51.27
37078;BME280;22989;55.998;37.212;2023-03-21T06:34:11;-11298.94;;;-145.39;51.25
37078;BME280;22989;55.998;37.212;2023-03-21T06:36:37;-11298.94;;;-145.39;51.25
37078;BME280;22989;55.998;37.212;2023-03-21T06:39:03;-11298.94;;;-145.39;51.22
37078;BME280;22989;55.998;37.212;2023-03-21T06:41:29;-11298.94;;;-145.39;51.14
37078;BME280;22989;55.998;37.212;2023-03-21T06:44:02;-11298.94;;;-145.39;51.23
37078;BME280;22989;55.998;37.212;2023-03-21T06:46:31;-11298.94;;;-145.39;50.95
37078;BME280;22989;55.998;37.212;2023-03-21T06:48:56;-11298.94;;;-145.39;50.78
37078;BME280;22989;55.998;37.212;2023-03-21T06:51:23;-11298.94;;;-145.39;50.47
37078;BME280;22989;55.998;37.212;2023-03-21T06:54:09;-11298.94;;;-145.39;50.36
37078;BME280;22989;55.998;37.212;2023-03-21T06:56:53;-11298.94;;;-145.39;49.98
37078;BME280;22989;55.998;37.212;2023-03-21T06:59:26;-11298.94;;;-145.39;49.69
37078;BME280;22989;55.998;37.212;2023-03-21T07:02:21;-11298.94;;;-145.39;49.58
37078;BME280;22989;55.998;37.212;2023-03-21T07:04:58;-11298.94;;;-145.39;49.72
37078;BME280;22989;55.998;37.212;2023-03-21T07:07:27;-11298.94;;;-145.39;49.82
37078;BME280;22989;55.998;37.212;2023-03-21T07:09:54;-11298.94;;;-145.39;49.84
37078;BME280;22989;55.998;37.212;2023-03-21T07:12:21;-11298.94;;;-145.39;49.65
37078;BME280;22989;55.998;37.212;2023-03-21T07:15:09;-11298.94;;;-145.39;49.42
37078;BME280;22989;55.998;37.212;2023-03-21T07:17:36;-11298.94;;;-145.39;49.09
37078;BME280;22989;55.998;37.212;2023-03-21T07:20:02;-11298.94;;;-145.39;48.64
37078;BME280;22989;55.998;37.212;2023-03-21T07:22:31;-11298.94;;;-145.39;48.09
37078;BME280;22989;55.998;37.212;2023-03-21T07:24:57;-11298.94;;;-145.39;47.40
37078;BME280;22989;55.998;37.212;2023-03-21T07:27:22;-11298.94;;;-145.39;47.10
37078;BME280;22989;55.998;37.212;2023-03-21T07:29:48;-11298.94;;;-145.39;46.90
37078;BME280;22989;55.998;37.212;2023-03-21T07:32:14;-11298.94;;;-145.39;46.92
37078;BME280;22989;55.998;37.212;2023-03-21T07:34:40;-11298.94;;;-145.39;46.83
37078;BME280;22989;55.998;37.212;2023-03-21T07:37:07;-11298.94;;;-145.39;46.70
37078;BME280;22989;55.998;37.212;2023-03-21T07:39:33;-11298.94;;;-145.39;46.34
37078;BME280;22989;55.998;37.212;2023-03-21T07:42:00;-11298.94;;;-145.39;46.46
37078;BME280;22989;55.998;37.212;2023-03-21T07:44:35;-11298.94;;;-145.39;46.25
37078;BME280;22989;55.998;37.212;2023-03-21T07:47:02;-11298.94;;;-145.39;46.22
37078;BME280;22989;55.998;37.212;2023-03-21T07:49:28;-11298.94;;;-145.39;46.17
37078;BME280;22989;55.998;37.212;2023-03-21T07:51:54;-11298.94;;;-145.39;46.04
37078;BME280;22989;55.998;37.212;2023-03-21T07:54:20;-11298.94;;;-145.39;46.04
37078;BME280;22989;55.998;37.212;2023-03-21T07:56:47;-11298.94;;;-145.39;46.13
37078;BME280;22989;55.998;37.212;2023-03-21T07:59:13;-11298.94;;;-145.39;46.32
37078;BME280;22989;55.998;37.212;2023-03-21T08:01:38;-11298.94;;;-145.39;46.50
37078;BME280;22989;55.998;37.212;2023-03-21T08:04:04;-11298.94;;;-145.39;46.95
37078;BME280;22989;55.998;37.212;2023-03-21T08:06:29;-11298.94;;;-145.39;47.28
37078;BME280;22989;55.998;37.212;2023-03-21T08:08:57;-11298.94;;;-145.39;47.64
37078;BME280;22989;55.998;37.212;2023-03-21T08:11:23;-11298.94;;;-145.39;47.94
37078;BME280;22989;55.998;37.212;2023-03-21T08:13:49;-11298.94;;;-145.39;47.93
37078;BME280;22989;55.998;37.212;2023-03-21T08:16:16;-11298.94;;;-145.39;47.92
37078;BME280;22989;55.998;37.212;2023-03-21T08:18:42;-11298.94;;;-145.39;47.74
37078;BME280;22989;55.998;37.212;2023-03-21T08:21:08;-11298.94;;;-145.39;47.60
37078;BME280;22989;55.998;37.212;2023-03-21T08:23:33;-11298.94;;;-145.39;47.35
37078;BME280;22989;55.998;37.212;2023-03-21T08:26:00;-11298.94;;;-145.39;47.01
37078;BME280;22989;55.998;37.212;2023-03-21T08:28:26;-11298.94;;;-145.39;46.85
37078;BME280;22989;55.998;37.212;2023-03-21T08:30:52;-11298.94;;;-145.39;46.71
37078;BME280;22989;55.998;37.212;2023-03-21T08:33:18;-11298.94;;;-145.39;46.94
37078;BME280;22989;55.998;37.212;2023-03-21T08:35:44;-11298.94;;;-145.39;46.90
37078;BME280;22989;55.998;37.212;2023-03-21T08:38:10;-11298.94;;;-145.39;47.12
37078;BME280;22989;55.998;37.212;2023-03-21T08:40:36;-11298.94;;;-145.39;47.30
37078;BME280;22989;55.998;37.212;2023-03-21T08:43:02;-11298.94;;;-145.39;47.17
37078;BME280;22989;55.998;37.212;2023-03-21T08:45:29;-11298.94;;;-145.39;47.27
37078;BME280;22989;55.998;37.212;2023-03-21T08:47:54;-11298.94;;;-145.39;47.20
37078;BME280;22989;55.998;37.212;2023-03-21T08:50:23;-11298.94;;;-145.39;47.03
37078;BME280;22989;55.998;37.212;2023-03-21T08:52:51;-11298.94;;;-145.39;46.49
37078;BME280;22989;55.998;37.212;2023-03-21T08:55:17;-11298.94;;;-145.39;45.87
37078;BME280;22989;55.998;37.212;2023-03-21T08:57:43;-11298.94;;;-145.39;45.52
37078;BME280;22989;55.998;37.212;2023-03-21T09:00:12;-11298.94;;;-145.39;45.29
37078;BME280;22989;55.998;37.212;2023-03-21T09:02:40;-11298.94;;;-145.39;45.04
37078;BME280;22989;55.998;37.212;2023-03-21T09:05:07;-11298.94;;;-145.39;44.87
37078;BME280;22989;55.998;37.212;2023-03-21T09:07:33;-11298.94;;;-145.39;44.86
37078;BME280;22989;55.998;37.212;2023-03-21T09:10:09;-11298.94;;;-145.39;44.47
37078;BME280;22989;55.998;37.212;2023-03-21T09:12:36;-11298.94;;;-145.39;44.17
37078;BME280;22989;55.998;37.212;2023-03-21T09:15:02;-11298.94;;;-145.39;43.96
37078;BME280;22989;55.998;37.212;2023-03-21T09:17:29;-11298.94;;;-145.39;43.81
37078;BME280;22989;55.998;37.212;2023-03-21T09:19:56;-11298.94;;;-145.39;43.82
37078;BME280;22989;55.998;37.212;2023-03-21T09:22:23;-11298.94;;;-145.39;43.60
37078;BME280;22989;55.998;37.212;2023-03-21T09:24:49;-11298.94;;;-145.39;43.51
37078;BME280;22989;55.998;37.212;2023-03-21T09:27:16;-11298.94;;;-145.39;43.30
37078;BME280;22989;55.998;37.212;2023-03-21T09:29:43;-11298.94;;;-145.39;43.04
37078;BME280;22989;55.998;37.212;2023-03-21T09:32:09;-11298.94;;;-145.39;42.86
37078;BME280;22989;55.998;37.212;2023-03-21T09:34:37;-11298.94;;;-145.39;42.75
37078;BME280;22989;55.998;37.212;2023-03-21T09:37:08;-11298.94;;;-145.39;42.91
37078;BME280;22989;55.998;37.212;2023-03-21T09:39:41;-11298.94;;;-145.39;42.99
37078;BME280;22989;55.998;37.212;2023-03-21T09:47:41;-11298.94;;;-145.39;42.57
37078;BME280;22989;55.998;37.212;2023-03-21T09:50:23;-11298.94;;;-145.39;42.30
37078;BME280;22989;55.998;37.212;2023-03-21T09:56:00;-11298.94;;;-145.39;41.47
37078;BME280;22989;55.998;37.212;2023-03-21T10:01:07;-11298.94;;;-145.39;41.27
37078;BME280;22989;55.998;37.212;2023-03-21T10:03:36;-11298.94;;;-145.39;41.24
37078;BME280;22989;55.998;37.212;2023-03-21T10:06:11;-11298.94;;;-145.39;41.32
37078;BME280;22989;55.998;37.212;2023-03-21T10:08:40;-11298.94;;;-145.39;41.24
37078;BME280;22989;55.998;37.212;2023-03-21T10:11:14;-11298.94;;;-145.39;41.25
37078;BME280;22989;55.998;37.212;2023-03-21T10:13:53;-11298.94;;;-145.39;41.35
37078;BME280;22989;55.998;37.212;2023-03-21T10:16:40;-11298.94;;;-145.39;41.54
37078;BME280;22989;55.998;37.212;2023-03-21T10:19:12;-11298.94;;;-145.39;41.21
37078;BME280;22989;55.998;37.212;2023-03-21T10:21:46;-11298.94;;;-145.39;41.32
37078;BME280;22989;55.998;37.212;2023-03-21T10:24:15;-11298.94;;;-145.39;41.56
37078;BME280;22989;55.998;37.212;2023-03-21T10:26:43;-11298.94;;;-145.39;41.58
37078;BME280;22989;55.998;37.212;2023-03-21T10:29:12;-11298.94;;;-145.39;41.30
37078;BME280;22989;55.998;37.212;2023-03-21T10:31:39;-11298.94;;;-145.39;40.89
37078;BME280;22989;55.998;37.212;2023-03-21T10:36:40;-11298.94;;;-145.39;40.40
37078;BME280;22989;55.998;37.212;2023-03-21T10:39:13;-11298.94;;;-145.39;40.09
37078;BME280;22989;55.998;37.212;2023-03-21T10:41:40;-11298.94;;;-145.39;39.78
37078;BME280;22989;55.998;37.212;2023-03-21T10:46:33;-11298.94;;;-145.39;39.46
37078;BME280;22989;55.998;37.212;2023-03-21T10:49:00;-11298.94;;;-145.39;39.45
37078;BME280;22989;55.998;37.212;2023-03-21T10:51:30;-11298.94;;;-145.39;39.43
37078;BME280;22989;55.998;37.212;2023-03-21T10:53:58;-11298.94;;;-145.39;39.58
37078;BME280;22989;55.998;37.212;2023-03-21T10:56:28;-11298.94;;;-145.39;39.18
37078;BME280;22989;55.998;37.212;2023-03-21T10:58:58;-11298.94;;;-145.39;38.90
37078;BME280;22989;55.998;37.212;2023-03-21T11:04:13;-11298.94;;;-145.39;38.99
37078;BME280;22989;55.998;37.212;2023-03-21T11:06:42;-11298.94;;;-145.39;39.16
37078;BME280;22989;55.998;37.212;2023-03-21T11:09:17;-11298.94;;;-145.39;39.13
37078;BME280;22989;55.998;37.212;2023-03-21T11:14:26;-11298.94;;;-145.39;38.86
37078;BME280;22989;55.998;37.212;2023-03-21T11:16:52;-11298.94;;;-145.39;39.08
37078;BME280;22989;55.998;37.212;2023-03-21T11:19:29;-11298.94;;;-145.39;39.20
37078;BME280;22989;55.998;37.212;2023-03-21T11:21:57;-11298.94;;;-145.39;39.08
37078;BME280;22989;55.998;37.212;2023-03-21T11:24:27;-11298.94;;;-145.39;39.02
37078;BME280;22989;55.998;37.212;2023-03-21T11:26:54;-11298.94;;;-145.39;38.79
37078;BME280;22989;55.998;37.212;2023-03-21T11:29:35;-11298.94;;;-145.39;38.45
37078;BME280;22989;55.998;37.212;2023-03-21T11:32:12;-11298.94;;;-145.39;38.43
37078;BME280;22989;55.998;37.212;2023-03-21T11:35:13;-11298.94;;;-145.39;38.31
37078;BME280;22989;55.998;37.212;2023-03-21T11:37:44;-11298.94;;;-145.39;38.34
37078;BME280;22989;55.998;37.212;2023-03-21T11:42:43;-11298.94;;;-145.39;38.54
37078;BME280;22989;55.998;37.212;2023-03-21T11:45:20;-11298.94;;;-145.39;38.77
37078;BME280;22989;55.998;37.212;2023-03-21T11:47:48;-11298.94;;;-145.39;38.93
37078;BME280;22989;55.998;37.212;2023-03-21T11:50:25;-11298.94;;;-145.39;38.91
37078;BME280;22989;55.998;37.212;2023-03-21T11:58:25;-11298.94;;;-145.39;39.02
37078;BME280;22989;55.998;37.212;2023-03-21T12:01:06;-11298.94;;;-145.39;38.64
37078;BME280;22989;55.998;37.212;2023-03-21T12:06:35;-11298.94;;;-145.39;37.67
37078;BME280;22989;55.998;37.212;2023-03-21T12:09:28;-11298.94;;;-145.39;37.59
37078;BME280;22989;55.998;37.212;2023-03-21T12:17:21;-11298.94;;;-145.39;37.38
37078;BME280;22989;55.998;37.212;2023-03-21T12:25:45;-11298.94;;;-145.39;36.96
37078;BME280;22989;55.998;37.212;2023-03-21T12:31:33;-11298.94;;;-145.39;36.68
37078;BME280;22989;55.998;37.212;2023-03-21T12:39:46;-11298.94;;;-145.39;36.57
37078;BME280;22989;55.998;37.212;2023-03-21T12:45:10;-11298.94;;;-145.39;36.54
37078;BME280;22989;55.998;37.212;2023-03-21T12:47:40;-11298.94;;;-145.39;36.53
37078;BME280;22989;55.998;37.212;2023-03-21T12:50:45;-11298.94;;;-145.39;36.09
37078;BME280;22989;55.998;37.212;2023-03-21T12:56:14;-11298.94;;;-145.39;35.99
37078;BME280;22989;55.998;37.212;2023-03-21T12:58:49;-11298.94;;;-145.39;35.76
37078;BME280;22989;55.998;37.212;2023-03-21T13:01:18;-11298.94;;;-145.39;35.79
37078;BME280;22989;55.998;37.212;2023-03-21T13:04:03;-11298.94;;;-145.39;35.66
37078;BME280;22989;55.998;37.212;2023-03-21T13:06:31;-11298.94;;;-145.39;35.71
37078;BME280;22989;55.998;37.212;2023-03-21T13:11:58;-11298.94;;;-145.39;35.28
37078;BME280;22989;55.998;37.212;2023-03-21T13:14:36;-11298.94;;;-145.39;35.24
37078;BME280;22989;55.998;37.212;2023-03-21T13:17:17;-11298.94;;;-145.39;35.12
37078;BME280;22989;55.998;37.212;2023-03-21T13:22:21;-11298.94;;;-145.39;35.20
37078;BME280;22989;55.998;37.212;2023-03-21T13:24:58;-11298.94;;;-145.39;35.02
37078;BME280;22989;55.998;37.212;2023-03-21T13:27:31;-11298.94;;;-145.39;35.02
37078;BME280;22989;55.998;37.212;2023-03-21T13:32:34;-11298.94;;;-145.39;34.94
37078;BME280;22989;55.998;37.212;2023-03-21T13:37:41;-11298.94;;;-145.39;34.89
37078;BME280;22989;55.998;37.212;2023-03-21T13:40:20;-11298.94;;;-145.39;34.92
37078;BME280;22989;55.998;37.212;2023-03-21T13:42:57;-11298.94;;;-145.39;35.08
37078;BME280;22989;55.998;37.212;2023-03-21T13:45:49;-11298.94;;;-145.39;35.12
37078;BME280;22989;55.998;37.212;2023-03-21T13:48:26;-11298.94;;;-145.39;35.14
37078;BME280;22989;55.998;37.212;2023-03-21T13:51:00;-11298.94;;;-145.39;35.14
37078;BME280;22989;55.998;37.212;2023-03-21T13:53:32;-11298.94;;;-145.39;34.96
37078;BME280;22989;55.998;37.212;2023-03-21T14:03:46;-11298.94;;;-145.39;34.49
37078;BME280;22989;55.998;37.212;2023-03-21T14:06:13;-11298.94;;;-145.39;34.52
37078;BME280;22989;55.998;37.212;2023-03-21T14:08:43;-11298.94;;;-145.39;34.54
37078;BME280;22989;55.998;37.212;2023-03-21T14:11:16;-11298.94;;;-145.39;34.55
37078;BME280;22989;55.998;37.212;2023-03-21T14:13:44;-11298.94;;;-145.39;34.62
37078;BME280;22989;55.998;37.212;2023-03-21T14:16:18;-11298.94;;;-145.39;34.72
37078;BME280;22989;55.998;37.212;2023-03-21T14:18:47;-11298.94;;;-145.39;34.75
37078;BME280;22989;55.998;37.212;2023-03-21T14:21:19;-11298.94;;;-145.39;34.84
37078;BME280;22989;55.998;37.212;2023-03-21T14:23:45;-11298.94;;;-145.39;34.71
37078;BME280;22989;55.998;37.212;2023-03-21T14:26:12;-11298.94;;;-145.39;34.78
37078;BME280;22989;55.998;37.212;2023-03-21T14:28:41;-11298.94;;;-145.39;34.92
37078;BME280;22989;55.998;37.212;2023-03-21T14:31:13;-11298.94;;;-145.39;34.98
37078;BME280;22989;55.998;37.212;2023-03-21T14:33:41;-11298.94;;;-145.39;34.98